Terminal Aerodrome Forecast
Issued by NWS Charleston, WV

Home | Current Version | Previous Version | Text Only | Print | Product List | Glossary On
Versions: 1 2 3 4 5 6 7 8 9 10 11 12 13 14 15 16 17 18 19 20 21 22 23 24 25
000
FTUS41 KRLX 012300
TAFHTS
TAF
KHTS 012322Z 0200/0224 18011G19KT 6SM -RA BR OVC035
      TEMPO 0200/0202 5SM -RA BKN025
     FM020200 21009G15KT 5SM -RA BR OVC025
     FM020900 26010G17KT 3SM -RA BR OVC010
     FM021300 27013G22KT 2SM -SN BR BKN008
     FM021600 28013G22KT 6SM -SHSN OVC015
     FM021900 30009G15KT P6SM BKN025
     FM022200 30008KT P6SM SCT030 BKN060=

USA.gov is the U.S. government's official web portal to all federal, state and local government web resources and services.